createdAt,value
2022-10-16T00:27:17.763Z,98869.72
2022-10-16T00:27:30.843Z,98878.75
2022-10-16T00:27:44.044Z,98872.16
2022-10-16T00:27:56.847Z,98876.59
2022-10-16T00:28:10.127Z,98877.25
2022-10-16T00:28:23.222Z,98876.38
2022-10-16T00:28:36.221Z,98868.88
2022-10-16T00:28:50.123Z,98878.56
2022-10-16T00:29:04.137Z,98876.84
2022-10-16T00:29:17.025Z,98877.50
2022-10-16T00:29:30.182Z,98880.06
2022-10-16T00:29:44.099Z,98884.53
2022-10-16T00:29:56.962Z,98877.31
2022-10-16T00:30:10.464Z,98877.50
2022-10-16T00:30:27.796Z,98878.75
2022-10-16T00:30:41.017Z,98875.81
2022-10-16T00:30:53.911Z,98876.31
2022-10-16T00:31:26.729Z,98880.94
2022-10-16T00:31:39.539Z,98878.81
2022-10-16T00:31:52.500Z,98872.22
2022-10-16T00:32:05.603Z,98876.56
2022-10-16T00:32:19.434Z,98872.69
2022-10-16T00:32:52.162Z,98877.00
2022-10-16T00:33:05.977Z,98878.41
2022-10-16T00:33:19.095Z,98876.78
2022-10-16T00:33:31.899Z,98873.06
2022-10-16T00:33:44.736Z,98870.50
2022-10-16T00:33:57.616Z,98874.03
2022-10-16T00:34:10.807Z,98874.19
2022-10-16T00:34:23.695Z,98877.53
2022-10-16T00:34:36.517Z,98877.47
2022-10-16T00:34:49.787Z,98871.53
2022-10-16T00:35:04.206Z,98877.75
2022-10-16T00:35:17.130Z,98879.56
2022-10-16T00:35:30.345Z,98873.37
2022-10-16T00:35:43.643Z,98879.44
2022-10-16T00:35:59.516Z,98873.28
2022-10-16T00:36:15.830Z,98873.87
2022-10-16T00:36:29.334Z,98879.59
2022-10-16T00:36:42.145Z,98873.87
2022-10-16T00:36:55.162Z,98878.34
2022-10-16T00:37:09.901Z,98879.13
2022-10-16T00:37:22.764Z,98874.50
2022-10-16T00:37:35.559Z,98875.44
2022-10-16T00:37:48.380Z,98880.84
2022-10-16T00:38:01.213Z,98881.63
2022-10-16T00:38:14.402Z,98870.09
2022-10-16T00:38:27.305Z,98869.06
2022-10-16T00:38:41.169Z,98882.31
2022-10-16T00:38:55.761Z,98875.81
2022-10-16T00:39:13.145Z,98879.91
2022-10-16T00:39:26.885Z,98883.38
2022-10-16T00:39:39.686Z,98884.16
2022-10-16T00:39:52.517Z,98880.37
2022-10-16T00:40:06.264Z,98884.59
2022-10-16T00:40:19.185Z,98881.72
2022-10-16T00:40:32.211Z,98885.25
2022-10-16T00:40:45.128Z,98875.44
2022-10-16T00:40:57.943Z,98881.47
2022-10-16T00:41:19.874Z,98882.41
2022-10-16T00:41:32.819Z,98878.88
2022-10-16T00:41:47.824Z,98876.12
2022-10-16T00:42:00.604Z,98879.56
2022-10-16T00:42:17.208Z,98881.25
2022-10-16T00:42:30.056Z,98883.75
2022-10-16T00:42:42.911Z,98878.56
2022-10-16T00:42:56.097Z,98877.41
2022-10-16T00:43:38.315Z,98879.81
2022-10-16T00:43:55.870Z,98879.06
2022-10-16T00:44:43.966Z,98880.06
2022-10-16T00:44:59.002Z,98880.31
2022-10-16T00:45:11.817Z,98876.59
2022-10-16T00:45:24.713Z,98877.31
2022-10-16T00:45:37.854Z,98882.88
2022-10-16T00:46:23.061Z,98875.75
2022-10-16T00:46:41.173Z,98883.81
2022-10-16T00:46:54.452Z,98879.28
2022-10-16T00:47:22.466Z,98879.13
2022-10-16T00:47:50.082Z,98877.16
2022-10-16T00:48:21.224Z,98878.78
2022-10-16T00:48:34.207Z,98876.12
2022-10-16T00:48:51.702Z,98875.53
2022-10-16T00:49:17.213Z,98876.38
2022-10-16T00:49:30.529Z,98880.06
2022-10-16T00:49:44.485Z,98874.03
2022-10-16T00:50:03.950Z,98873.16
2022-10-16T00:50:33.094Z,98879.28
2022-10-16T00:50:45.902Z,98881.03
2022-10-16T00:50:59.207Z,98882.09
2022-10-16T00:51:12.001Z,98879.44
2022-10-16T00:51:27.409Z,98881.81
2022-10-16T00:51:43.899Z,98882.66
2022-10-16T00:51:56.901Z,98884.38
2022-10-16T00:52:09.725Z,98885.25
2022-10-16T00:52:22.835Z,98885.50
2022-10-16T00:52:36.035Z,98888.16
2022-10-16T00:52:49.526Z,98879.59
2022-10-16T00:53:02.586Z,98882.03
2022-10-16T00:53:15.596Z,98889.03
2022-10-16T00:53:29.646Z,98888.16
2022-10-16T00:53:43.480Z,98887.13
2022-10-16T00:53:56.700Z,98883.69
2022-10-16T00:54:17.381Z,98889.03
2022-10-16T00:54:31.687Z,98890.88
2022-10-16T00:54:44.495Z,98890.00
2022-10-16T00:54:59.650Z,98893.50
2022-10-16T00:55:13.443Z,98889.03
2022-10-16T00:55:26.556Z,98893.50
2022-10-16T00:55:42.393Z,98889.06
2022-10-16T00:55:56.604Z,98890.00
2022-10-16T00:56:09.488Z,98883.03
2022-10-16T00:56:22.491Z,98889.25
2022-10-16T00:56:35.808Z,98892.00
2022-10-16T00:56:48.672Z,98891.13
2022-10-16T00:57:03.693Z,98894.66
2022-10-16T00:57:16.565Z,98886.50
2022-10-16T00:57:49.413Z,98891.69
2022-10-16T00:58:02.283Z,98892.38
2022-10-16T00:58:15.353Z,98894.97
2022-10-16T00:58:28.635Z,98888.75
2022-10-16T00:59:06.056Z,98889.78
2022-10-16T00:59:28.086Z,98889.31
2022-10-16T00:59:41.538Z,98891.75
2022-10-16T01:00:06.278Z,98890.88
2022-10-16T01:00:21.619Z,98889.16
2022-10-16T01:00:34.457Z,98893.50
2022-10-16T01:00:47.757Z,98896.06
2022-10-16T01:01:00.733Z,98890.66
2022-10-16T01:01:13.683Z,98890.75
2022-10-16T01:01:26.571Z,98891.69
2022-10-16T01:01:39.958Z,98894.56
2022-10-16T01:01:53.551Z,98896.28
2022-10-16T01:02:07.597Z,98897.94
2022-10-16T01:02:20.953Z,98892.59
2022-10-16T01:02:33.744Z,98890.00
2022-10-16T01:02:53.992Z,98886.56
2022-10-16T01:03:50.801Z,98894.66
2022-10-16T01:04:04.723Z,98899.28
2022-10-16T01:04:17.988Z,98900.22
2022-10-16T01:04:34.142Z,98893.09
2022-10-16T01:04:49.714Z,98897.66
2022-10-16T01:05:03.031Z,98905.66
2022-10-16T01:05:16.044Z,98901.94
2022-10-16T01:05:39.249Z,98894.81
2022-10-16T01:06:58.888Z,98902.09
2022-10-16T01:07:17.875Z,98904.91
2022-10-16T01:07:50.736Z,98897.94
2022-10-16T01:08:10.669Z,98905.00
2022-10-16T01:26:21.829Z,98902.56
2022-10-16T01:26:59.901Z,98902.56
2022-10-16T01:27:32.644Z,98909.06
2022-10-16T01:27:45.468Z,98910.72
2022-10-16T01:28:00.418Z,98914.38
2022-10-16T01:28:13.269Z,98911.66
2022-10-16T01:28:31.745Z,98910.94
2022-10-16T01:29:07.400Z,98912.66
2022-10-16T01:29:22.151Z,98914.56
2022-10-16T01:29:51.401Z,98916.28
2022-10-16T01:30:25.674Z,98907.25
2022-10-16T01:30:38.980Z,98910.94
2022-10-16T01:30:52.756Z,98913.53
2022-10-16T01:31:05.575Z,98910.87
2022-10-16T01:31:19.904Z,98912.66
2022-10-16T01:31:34.993Z,98912.59
2022-10-16T01:31:51.028Z,98907.34
2022-10-16T01:32:10.896Z,98913.63
2022-10-16T01:32:46.964Z,98914.56
2022-10-16T01:33:20.588Z,98909.22
2022-10-16T01:33:44.762Z,98914.22
2022-10-16T01:34:30.553Z,98905.31
2022-10-16T01:34:53.914Z,98907.09
2022-10-16T01:35:12.592Z,98911.56
2022-10-16T01:35:33.002Z,98901.84
2022-10-16T01:35:49.119Z,98910.63
2022-10-16T01:36:06.904Z,98902.63
2022-10-16T01:36:22.547Z,98907.03
2022-10-16T01:36:40.875Z,98902.44
2022-10-16T01:36:56.689Z,98906.06
2022-10-16T01:37:12.991Z,98904.34
2022-10-16T01:37:51.008Z,98905.31
2022-10-16T01:38:12.649Z,98911.66
2022-10-16T01:38:36.583Z,98908.28
2022-10-16T01:38:50.989Z,98907.56
2022-10-16T01:39:04.344Z,98912.88
2022-10-16T01:39:17.276Z,98911.03
2022-10-16T01:39:31.755Z,98905.63
2022-10-16T01:39:46.704Z,98912.84
2022-10-16T01:40:00.511Z,98909.50
2022-10-16T01:40:14.245Z,98905.91
2022-10-16T01:40:28.391Z,98912.97
2022-10-16T01:40:42.926Z,98912.97
2022-10-16T01:40:59.582Z,98911.22
2022-10-16T01:41:25.860Z,98910.47
2022-10-16T01:41:42.664Z,98910.63
2022-10-16T01:41:58.567Z,98913.28
2022-10-16T01:42:16.372Z,98912.50
2022-10-16T01:42:55.078Z,98913.69
2022-10-16T01:43:16.978Z,98911.31
2022-10-16T01:43:40.339Z,98922.69
2022-10-16T01:44:05.636Z,98919.94
2022-10-16T01:44:21.079Z,98916.78
2022-10-16T01:44:34.477Z,98920.22
2022-10-16T01:44:47.408Z,98918.44
2022-10-16T01:45:00.436Z,98922.28
2022-10-16T01:45:14.710Z,98921.25
2022-10-16T01:46:10.394Z,98921.19
2022-10-16T01:46:24.204Z,98915.84
2022-10-16T01:46:38.117Z,98919.28
2022-10-16T01:46:51.676Z,98922.97
2022-10-16T01:47:04.828Z,98920.63
2022-10-16T01:47:18.279Z,98912.72
2022-10-16T01:47:31.139Z,98925.78
2022-10-16T01:47:44.796Z,98925.94
2022-10-16T01:47:57.679Z,98932.34
2022-10-16T01:48:31.371Z,98928.53
2022-10-16T01:48:44.674Z,98928.47
2022-10-16T01:48:57.495Z,98922.19
2022-10-16T01:49:10.361Z,98921.34
2022-10-16T01:49:28.841Z,98926.66
2022-10-16T01:49:41.801Z,98924.00
2022-10-16T01:49:54.601Z,98931.03
2022-10-16T01:50:07.776Z,98925.87
2022-10-16T01:50:22.791Z,98924.16
2022-10-16T01:50:38.604Z,98925.94
2022-10-16T01:51:06.104Z,98919.09
2022-10-16T01:51:19.023Z,98920.69
2022-10-16T01:51:32.166Z,98928.53
2022-10-16T01:51:46.524Z,98923.06
2022-10-16T01:52:16.696Z,98926.03
2022-10-16T01:52:29.691Z,98922.69
2022-10-16T01:52:44.638Z,98930.75
2022-10-16T01:52:58.144Z,98932.41
2022-10-16T01:53:12.081Z,98932.41
2022-10-16T02:33:26.941Z,98938.31
2022-10-16T02:33:41.346Z,98937.75
2022-10-16T02:33:54.372Z,98938.16
2022-10-16T02:34:07.242Z,98942.75
2022-10-16T02:34:20.213Z,98940.09
2022-10-16T02:34:33.542Z,98940.19
2022-10-16T02:34:46.959Z,98940.31
2022-10-16T02:35:00.718Z,98944.84
2022-10-16T02:35:13.972Z,98938.66
2022-10-16T02:35:28.151Z,98951.09
2022-10-16T02:36:02.472Z,98949.28
2022-10-16T02:36:16.345Z,98940.63
2022-10-16T02:36:29.585Z,98944.06
2022-10-16T02:36:42.936Z,98947.66
2022-10-16T02:36:59.976Z,98945.69
2022-10-16T02:37:12.966Z,98946.44
2022-10-16T02:37:26.808Z,98946.63
2022-10-16T02:37:39.674Z,98946.56
2022-10-16T02:37:53.134Z,98948.44
2022-10-16T02:38:06.569Z,98940.31
2022-10-16T02:38:19.668Z,98951.84
2022-10-16T03:04:24.855Z,98952.56
2022-10-16T03:04:38.185Z,98951.81
2022-10-16T03:04:51.176Z,98957.87
2022-10-16T03:05:04.312Z,98954.44
2022-10-16T03:05:17.372Z,98959.84
2022-10-16T03:05:30.303Z,98961.25
2022-10-16T03:05:46.713Z,98957.06
2022-10-16T03:05:59.533Z,98962.53
2022-10-16T03:06:12.779Z,98957.22
2022-10-16T03:06:25.675Z,98959.66
2022-10-16T03:06:38.528Z,98963.63
2022-10-16T03:06:51.417Z,98960.31
2022-10-16T03:07:04.511Z,98960.31
2022-10-16T03:07:17.429Z,98963.13
2022-10-16T03:07:30.442Z,98957.91
2022-10-16T03:07:43.431Z,98959.53
2022-10-16T03:07:56.646Z,98960.56
2022-10-16T03:08:09.493Z,98968.47
2022-10-16T03:08:24.637Z,98967.66
2022-10-16T03:08:37.623Z,98965.78
2022-10-16T03:08:50.911Z,98961.25
2022-10-16T03:09:03.796Z,98962.19
2022-10-16T03:09:17.163Z,98966.34
2022-10-16T03:09:31.204Z,98966.34
2022-10-16T03:09:44.014Z,98966.03
2022-10-16T03:09:56.901Z,98968.44
2022-10-16T03:10:13.672Z,98969.22
2022-10-16T03:10:26.526Z,98968.62
2022-10-16T03:10:39.344Z,98967.78
2022-10-16T03:10:52.452Z,98965.03
2022-10-16T03:11:05.288Z,98959.66
2022-10-16T03:11:18.103Z,98963.97
2022-10-16T03:11:51.573Z,98969.19
2022-10-16T03:12:04.557Z,98968.91
2022-10-16T03:12:17.496Z,98962.78
2022-10-16T03:12:36.163Z,98965.53
2022-10-16T03:12:48.935Z,98966.31
2022-10-16T03:13:01.730Z,98965.44
2022-10-16T03:13:14.940Z,98968.25
2022-10-16T03:13:27.910Z,98964.84
2022-10-16T03:13:41.203Z,98968.19
2022-10-16T03:13:54.424Z,98969.03
2022-10-16T03:14:07.450Z,98968.97
2022-10-16T03:14:20.540Z,98963.59
2022-10-16T03:14:33.781Z,98967.03
2022-10-16T03:14:46.664Z,98966.91
2022-10-16T03:15:00.040Z,98973.81
2022-10-16T03:15:33.379Z,98966.66
2022-10-16T03:15:46.247Z,98970.09
2022-10-16T03:15:59.035Z,98971.81
2022-10-16T03:16:11.900Z,98971.97
2022-10-16T03:16:25.621Z,98967.72
2022-10-16T03:16:38.432Z,98966.03
2022-10-16T03:16:51.635Z,98970.56
2022-10-16T03:17:04.460Z,98968.66
2022-10-16T03:17:17.900Z,98961.66
2022-10-16T03:17:30.744Z,98972.41
2022-10-16T03:17:44.200Z,98964.37
2022-10-16T03:18:00.558Z,98974.06
2022-10-16T03:18:13.855Z,98972.22
2022-10-16T03:18:26.745Z,98971.56
2022-10-16T03:18:39.664Z,98972.22
2022-10-16T03:18:52.516Z,98969.69
2022-10-16T03:19:05.422Z,98968.75
2022-10-16T03:19:18.652Z,98973.06
2022-10-16T03:19:36.842Z,98968.69
2022-10-16T03:19:49.656Z,98972.22
2022-10-16T03:20:05.105Z,98972.28
2022-10-16T03:20:17.944Z,98972.09
2022-10-16T03:20:31.234Z,98968.75
2022-10-16T03:21:04.936Z,98971.50
2022-10-16T03:21:17.846Z,98978.34
2022-10-16T03:21:30.728Z,98980.88
2022-10-16T03:21:43.567Z,98978.22
2022-10-16T03:22:14.912Z,98979.94
2022-10-16T03:22:47.640Z,98976.47
2022-10-16T03:23:03.581Z,98981.88
2022-10-16T03:23:16.465Z,98976.72
2022-10-16T03:24:04.791Z,98980.94
2022-10-16T03:24:18.240Z,98975.94
2022-10-16T03:24:50.981Z,98981.19
2022-10-16T03:25:05.146Z,98980.31
2022-10-16T03:25:17.954Z,98981.19
2022-10-16T03:25:30.798Z,98974.88
2022-10-16T03:25:44.097Z,98979.22
2022-10-16T03:25:57.174Z,98979.94
2022-10-16T03:26:10.091Z,98973.97
2022-10-16T03:26:23.379Z,98983.66
2022-10-16T03:26:36.207Z,98982.59
2022-10-16T03:26:49.017Z,98978.28
2022-10-16T03:27:02.344Z,98976.56
2022-10-16T03:27:58.638Z,98977.41
2022-10-16T03:28:11.666Z,98984.59
2022-10-16T03:28:24.881Z,98986.50
2022-10-16T03:28:38.571Z,98981.25
2022-10-16T04:07:28.438Z,99001.97
2022-10-16T04:07:41.508Z,98995.59
2022-10-16T04:07:54.927Z,99001.16
2022-10-16T04:08:07.938Z,99001.16
2022-10-16T04:08:20.968Z,98998.50
2022-10-16T04:08:36.089Z,99004.75
2022-10-16T04:08:48.889Z,99003.88
2022-10-16T04:09:01.707Z,98996.66
2022-10-16T04:09:14.873Z,98997.63
2022-10-16T04:09:47.699Z,99004.81
2022-10-16T04:10:00.589Z,98999.62
2022-10-16T04:10:13.661Z,98999.72
2022-10-16T04:10:28.503Z,99004.13
2022-10-16T04:10:43.803Z,99005.34
2022-10-16T04:10:56.640Z,99000.00
2022-10-16T04:11:11.435Z,99001.84
2022-10-16T04:11:28.903Z,99001.66
2022-10-16T04:11:41.757Z,99004.88
2022-10-16T04:11:55.056Z,99009.25
2022-10-16T04:12:07.938Z,99002.16
2022-10-16T04:12:22.947Z,99004.69
2022-10-16T04:12:36.180Z,99006.59
2022-10-16T04:12:48.968Z,99008.56
2022-10-16T04:13:01.873Z,99007.72
2022-10-16T04:13:15.688Z,99002.31
2022-10-16T04:13:29.021Z,99006.06
2022-10-16T04:13:42.660Z,99009.56
2022-10-16T04:13:55.587Z,99005.19
2022-10-16T04:14:08.544Z,99004.19
2022-10-16T04:14:21.369Z,99011.28
2022-10-16T04:14:34.241Z,99012.06
2022-10-16T04:14:47.180Z,99004.09
2022-10-16T04:15:00.332Z,99009.31
2022-10-16T04:15:14.293Z,99008.19
2022-10-16T04:15:27.134Z,99003.69
2022-10-16T04:15:39.950Z,99003.69
2022-10-16T04:15:54.837Z,99008.00
2022-10-16T04:16:08.070Z,99006.19
2022-10-16T04:16:21.229Z,99006.97
2022-10-16T04:16:34.064Z,99007.12
2022-10-16T04:16:46.917Z,99008.00
2022-10-16T04:16:59.752Z,99005.34
2022-10-16T04:17:12.617Z,99012.34
2022-10-16T04:17:25.847Z,99001.72
2022-10-16T04:17:38.740Z,99007.97
2022-10-16T04:17:51.663Z,99007.91
2022-10-16T04:18:05.117Z,99000.72
2022-10-16T04:18:18.460Z,99004.19
2022-10-16T04:18:31.565Z,99005.06
2022-10-16T04:18:44.803Z,99003.31
2022-10-16T04:18:57.674Z,99008.50
2022-10-16T04:19:11.621Z,99003.31
2022-10-16T04:20:17.013Z,98997.28
2022-10-16T04:20:29.844Z,99002.53
2022-10-16T04:21:06.402Z,99002.53
2022-10-16T04:21:19.440Z,98999.44
2022-10-16T04:21:32.327Z,99000.28
2022-10-16T04:22:04.054Z,99007.34
2022-10-16T04:22:16.919Z,99009.19
2022-10-16T04:22:29.839Z,99001.28
2022-10-16T04:22:42.839Z,98996.03
2022-10-16T04:22:56.197Z,99004.03
2022-10-16T04:23:09.023Z,99005.78
2022-10-16T04:23:21.953Z,99009.25
2022-10-16T04:23:35.211Z,99006.66
2022-10-16T04:23:48.509Z,99011.19
2022-10-16T04:24:01.304Z,99008.47
2022-10-16T04:24:17.249Z,99003.19
2022-10-16T04:24:30.425Z,99005.91
2022-10-16T04:24:43.257Z,99014.00
2022-10-16T04:24:56.182Z,99008.72
2022-10-16T04:25:27.954Z,99006.00
2022-10-16T04:25:40.835Z,99009.34
2022-10-16T04:25:54.555Z,99011.97
2022-10-16T04:26:07.412Z,99012.69
2022-10-16T04:26:20.243Z,99013.56
2022-10-16T04:26:33.075Z,99010.84
2022-10-16T04:26:46.079Z,99014.31
2022-10-16T04:26:58.865Z,99008.25
2022-10-16T04:27:11.700Z,99015.22
2022-10-16T04:27:24.714Z,99010.84
2022-10-16T04:27:39.973Z,99012.44
2022-10-16T04:27:55.205Z,99007.97
2022-10-16T04:28:08.214Z,99017.03
2022-10-16T04:28:41.266Z,99012.50
2022-10-16T04:28:54.961Z,99013.31
2022-10-16T04:29:08.113Z,99010.03
2022-10-16T04:29:20.959Z,99009.00
2022-10-16T04:29:53.691Z,99011.72
2022-10-16T04:30:08.281Z,99006.19
2022-10-16T04:30:21.723Z,99018.69
2022-10-16T04:30:34.943Z,99010.63
2022-10-16T04:30:48.247Z,99014.12
2022-10-16T04:31:01.098Z,99013.16
2022-10-16T04:31:13.935Z,99013.94
2022-10-16T04:31:26.843Z,99013.94
2022-10-16T04:58:38.859Z,99014.75
2022-10-16T04:58:52.135Z,99020.19
2022-10-16T04:59:05.313Z,99014.19
2022-10-16T04:59:19.131Z,99025.56
2022-10-16T04:59:52.667Z,99017.66
2022-10-16T05:00:06.934Z,99017.66
2022-10-16T05:00:20.417Z,99017.66
2022-10-16T05:00:33.561Z,99021.91
2022-10-16T05:00:47.954Z,99017.47
2022-10-16T05:01:01.062Z,99020.19
2022-10-16T05:01:14.507Z,99018.53
2022-10-16T05:01:27.663Z,99015.81
2022-10-16T05:11:54.205Z,99020.06
2022-10-16T05:12:07.056Z,99024.38
2022-10-16T05:12:19.859Z,99025.97
2022-10-16T05:12:33.351Z,99021.53
2022-10-16T05:12:47.342Z,99021.66
2022-10-16T05:13:04.563Z,99017.19
2022-10-16T05:13:18.731Z,99022.44
2022-10-16T05:13:55.788Z,99023.25
2022-10-16T05:14:27.675Z,99023.38
2022-10-16T05:14:42.362Z,99024.09
2022-10-16T05:14:59.802Z,99017.81
2022-10-16T05:15:13.294Z,99019.50
2022-10-16T05:15:26.391Z,99021.28
2022-10-16T05:15:39.594Z,99018.81
2022-10-16T05:15:52.833Z,99018.69
2022-10-16T05:16:07.009Z,99021.47
2022-10-16T05:16:20.299Z,99020.78
2022-10-16T05:16:33.650Z,99021.72
2022-10-16T05:16:49.130Z,99020.84
2022-10-16T05:17:32.692Z,99024.25
2022-10-16T05:17:47.844Z,99023.97
2022-10-16T05:18:00.671Z,99023.13
2022-10-16T05:18:17.905Z,99023.03
2022-10-16T05:18:30.887Z,99022.31
2022-10-16T05:18:43.973Z,99022.25
2022-10-16T05:19:22.408Z,99023.19
2022-10-16T05:19:31.224Z,99025.03
2022-10-16T05:20:06.550Z,99029.22
2022-10-16T05:20:19.506Z,99027.69
2022-10-16T05:20:32.352Z,99031.28
2022-10-16T05:20:45.417Z,99027.81
2022-10-16T05:20:59.301Z,99031.28
2022-10-16T05:21:12.309Z,99027.56
2022-10-16T05:21:25.701Z,99031.34
2022-10-16T05:21:38.545Z,99028.56
2022-10-16T05:21:51.582Z,99030.53
2022-10-16T05:22:04.858Z,99030.41
2022-10-16T05:22:17.721Z,99026.81
2022-10-16T05:22:30.844Z,99034.00
2022-10-16T05:22:47.668Z,99040.91
2022-10-16T05:23:00.666Z,99032.25
2022-10-16T05:23:26.430Z,99034.91
2022-10-16T05:23:39.830Z,99039.28
2022-10-16T05:23:54.327Z,99034.84
2022-10-16T05:24:27.267Z,99043.72
2022-10-16T05:24:40.523Z,99039.22
2022-10-16T05:24:53.324Z,99048.91
2022-10-16T05:25:06.726Z,99044.47
2022-10-16T05:25:20.215Z,99041.75
2022-10-16T05:25:33.397Z,99044.41
2022-10-16T05:25:56.384Z,99042.94
2022-10-16T05:26:09.395Z,99044.88
2022-10-16T05:26:25.118Z,99043.16
2022-10-16T05:26:38.180Z,99044.66
2022-10-16T05:26:51.208Z,99050.91
2022-10-16T05:27:04.396Z,99050.97
2022-10-16T05:27:20.322Z,99050.13
2022-10-16T05:27:35.291Z,99048.34
2022-10-16T05:27:50.364Z,99046.59
2022-10-16T05:28:23.145Z,99049.25
2022-10-16T05:28:36.300Z,99052.72
2022-10-16T05:28:50.273Z,99052.69
2022-10-16T05:29:03.771Z,99048.13
2022-10-16T05:29:17.250Z,99048.97
2022-10-16T05:29:30.726Z,99047.94
2022-10-16T05:29:43.610Z,99048.00
2022-10-16T05:29:56.595Z,99051.44
2022-10-16T05:30:12.390Z,99045.22
2022-10-16T05:30:25.502Z,99053.03
2022-10-16T05:30:42.378Z,99044.19
2022-10-16T05:42:46.861Z,99039.75
2022-10-16T05:42:59.676Z,99042.56
2022-10-16T05:43:13.516Z,99047.50
2022-10-16T05:43:28.818Z,99039.69
2022-10-16T05:43:41.760Z,99045.66
2022-10-16T05:43:55.114Z,99042.97
2022-10-16T05:44:11.367Z,99048.16
2022-10-16T05:44:24.496Z,99050.97
2022-10-16T05:44:37.723Z,99044.12
2022-10-16T05:44:50.924Z,99045.84
2022-10-16T05:45:04.999Z,99049.63
2022-10-16T05:45:18.040Z,99040.66
2022-10-16T05:45:31.417Z,99050.09
2022-10-16T05:45:44.800Z,99050.81
2022-10-16T05:45:58.362Z,99053.28
2022-10-16T05:46:11.229Z,99044.31
2022-10-16T05:46:24.322Z,99048.69
2022-10-16T05:46:57.051Z,99043.22
2022-10-16T05:47:30.393Z,99049.56
2022-10-16T05:48:03.132Z,99050.38
2022-10-16T05:48:16.150Z,99051.91
2022-10-16T05:48:29.149Z,99053.53
2022-10-16T05:48:42.946Z,99057.22
2022-10-16T05:48:55.920Z,99051.97
2022-10-16T05:49:08.732Z,99049.19
2022-10-16T05:49:21.611Z,99058.78
2022-10-16T05:49:37.857Z,99048.06
2022-10-16T05:50:12.218Z,99051.56
2022-10-16T05:50:25.053Z,99054.63
2022-10-16T05:51:05.043Z,99050.78
2022-10-16T05:51:37.783Z,99053.56
2022-10-16T05:51:50.765Z,99059.19
2022-10-16T06:11:31.480Z,99080.59
2022-10-16T06:12:04.408Z,99073.81
2022-10-16T06:12:18.268Z,99071.84
2022-10-16T06:32:02.397Z,99110.66
2022-10-16T06:32:15.552Z,99105.25
2022-10-16T06:32:28.889Z,99112.16
2022-10-16T06:33:04.800Z,99115.72
2022-10-16T06:33:38.317Z,99108.00
2022-10-16T06:33:52.245Z,99113.09
2022-10-16T06:34:07.316Z,99114.69
2022-10-16T06:34:20.293Z,99112.66
2022-10-16T06:34:33.298Z,99117.03
2022-10-16T06:34:46.511Z,99110.22
2022-10-16T06:34:59.316Z,99113.53
2022-10-16T06:35:12.213Z,99117.09
2022-10-16T06:35:30.590Z,99112.66
2022-10-16T06:35:43.442Z,99117.09
2022-10-16T06:36:05.185Z,99112.81
2022-10-16T06:36:36.671Z,99111.03
2022-10-16T06:36:53.489Z,99115.41
2022-10-16T06:37:06.545Z,99116.84
2022-10-16T06:37:19.455Z,99112.59
2022-10-16T06:37:32.346Z,99115.91
2022-10-16T06:37:45.650Z,99110.53
2022-10-16T06:37:59.099Z,99114.25
2022-10-16T06:38:12.332Z,99115.97
2022-10-16T06:38:25.372Z,99120.25
2022-10-16T06:38:38.578Z,99117.66
2022-10-16T06:38:51.628Z,99113.47
2022-10-16T06:39:06.011Z,99116.13
2022-10-16T06:39:19.012Z,99111.59
2022-10-16T06:39:32.259Z,99108.66
2022-10-16T06:39:47.122Z,99114.91
2022-10-16T06:40:02.035Z,99114.91
2022-10-16T06:40:18.744Z,99110.53
2022-10-16T06:40:31.841Z,99114.75
2022-10-16T06:40:44.975Z,99113.03
2022-10-16T06:40:58.140Z,99109.56
2022-10-16T06:41:16.437Z,99112.25
2022-10-16T06:41:29.667Z,99114.03
2022-10-16T06:41:42.612Z,99115.56
2022-10-16T06:41:56.366Z,99109.37
2022-10-16T06:42:09.733Z,99118.03
2022-10-16T06:42:22.537Z,99118.00
2022-10-16T06:42:35.555Z,99114.28
2022-10-16T06:42:49.502Z,99117.06
2022-10-16T06:43:02.508Z,99120.66
2022-10-16T06:43:19.315Z,99111.75
2022-10-16T06:43:38.423Z,99117.00
2022-10-16T06:43:51.587Z,99117.84
2022-10-16T06:44:07.703Z,99122.72
2022-10-16T06:44:20.892Z,99119.16
2022-10-16T06:44:53.054Z,99127.00
2022-10-16T06:45:06.815Z,99129.59
2022-10-16T06:45:21.664Z,99123.66
2022-10-16T06:45:56.196Z,99126.84
2022-10-16T06:46:10.512Z,99122.19
2022-10-16T06:46:24.857Z,99128.28
2022-10-16T06:46:57.774Z,99137.38
2022-10-16T06:47:11.738Z,99125.41
2022-10-16T06:47:24.888Z,99124.41
2022-10-16T06:47:37.752Z,99129.09
2022-10-16T06:47:51.111Z,99129.84
2022-10-16T06:48:04.330Z,99126.34
2022-10-16T06:48:37.841Z,99126.50
2022-10-16T06:48:50.689Z,99123.16
2022-10-16T06:49:03.697Z,99132.87
2022-10-16T06:49:22.435Z,99124.84
2022-10-16T06:49:35.817Z,99130.81
2022-10-16T06:49:51.867Z,99133.66
2022-10-16T06:50:10.298Z,99126.63
2022-10-16T06:50:23.650Z,99125.63
2022-10-16T06:50:36.798Z,99129.34
2022-10-16T06:51:11.328Z,99126.41
2022-10-16T06:51:25.007Z,99127.13
2022-10-16T06:51:43.323Z,99132.37
2022-10-16T06:53:16.996Z,99133.00
2022-10-16T06:53:39.552Z,99129.22
2022-10-16T06:54:04.694Z,99131.13
2022-10-16T06:54:18.991Z,99126.63
2022-10-16T06:54:36.458Z,99136.19
2022-10-16T06:54:55.350Z,99124.84
2022-10-16T06:55:08.851Z,99131.66
2022-10-16T06:55:22.090Z,99134.22
2022-10-16T06:55:40.047Z,99134.28
2022-10-16T06:55:53.539Z,99133.16
2022-10-16T06:56:17.285Z,99137.47
2022-10-16T06:56:32.281Z,99132.50
2022-10-16T06:56:45.924Z,99137.91
2022-10-16T06:57:01.104Z,99132.25
2022-10-16T06:57:13.918Z,99136.12
2022-10-16T06:57:27.172Z,99141.28
2022-10-16T06:57:40.244Z,99136.19
2022-10-16T06:57:53.320Z,99137.00
2022-10-16T06:58:06.561Z,99141.63
2022-10-16T06:58:19.753Z,99139.19
2022-10-16T06:58:33.446Z,99138.31
2022-10-16T06:58:46.849Z,99138.91
2022-10-16T06:59:00.490Z,99141.41
2022-10-16T06:59:13.315Z,99142.31
2022-10-16T06:59:47.036Z,99142.00
2022-10-16T07:00:18.975Z,99143.72
2022-10-16T07:00:31.841Z,99137.63
2022-10-16T07:00:45.530Z,99139.34
2022-10-16T07:00:58.383Z,99143.56
2022-10-16T07:01:12.128Z,99143.28
2022-10-16T07:01:30.287Z,99143.44
2022-10-16T07:01:45.264Z,99142.56
2022-10-16T07:02:01.730Z,99136.16
2022-10-16T07:02:24.076Z,99143.81
2022-10-16T07:02:40.333Z,99143.81
2022-10-16T07:02:53.216Z,99138.34
2022-10-16T07:03:06.243Z,99146.38
2022-10-16T07:03:19.261Z,99139.53
2022-10-16T07:03:32.357Z,99142.94
2022-10-16T07:03:46.328Z,99141.22
2022-10-16T07:03:59.447Z,99148.91
2022-10-16T07:04:12.487Z,99141.56
2022-10-16T07:04:25.324Z,99139.97
2022-10-16T07:04:38.167Z,99149.13
2022-10-16T07:04:51.194Z,99138.63
2022-10-16T07:05:05.260Z,99146.22
2022-10-16T07:05:18.972Z,99141.78
2022-10-16T07:05:32.130Z,99146.78
2022-10-16T07:05:46.936Z,99144.91
2022-10-16T07:06:05.845Z,99145.22
2022-10-16T07:06:19.985Z,99147.31
2022-10-16T07:06:34.576Z,99145.38
2022-10-16T07:06:47.722Z,99143.59
2022-10-16T07:07:04.445Z,99146.03
2022-10-16T07:07:19.993Z,99149.53
2022-10-16T07:07:32.837Z,99151.06
2022-10-16T07:07:45.705Z,99149.59
2022-10-16T07:07:58.569Z,99152.91
2022-10-16T07:08:20.337Z,99148.56
2022-10-16T07:08:37.480Z,99153.81
2022-10-16T07:08:54.280Z,99151.06
2022-10-16T07:09:10.073Z,99148.28
2022-10-16T07:09:23.260Z,99156.91
2022-10-16T07:09:37.298Z,99154.97
2022-10-16T07:09:50.186Z,99159.06
2022-10-16T07:10:04.033Z,99154.87
2022-10-16T07:10:17.084Z,99156.72
2022-10-16T07:10:30.333Z,99155.66
2022-10-16T07:10:43.331Z,99159.50
2022-10-16T07:11:18.310Z,99160.41